sensor_id;sensor_type;location;lat;lon;timestamp;temperature;humidity
68257;DHT22;55069;51.568;4.656;2023-05-07T00:02:02;14.44;87.07
68257;DHT22;55069;51.568;4.656;2023-05-07T00:04:28;14.40;86.97
68257;DHT22;55069;51.568;4.656;2023-05-07T00:06:53;14.42;87.37
68257;DHT22;55069;51.568;4.656;2023-05-07T00:09:19;14.42;87.54
68257;DHT22;55069;51.568;4.656;2023-05-07T00:11:44;14.39;87.18
68257;DHT22;55069;51.568;4.656;2023-05-07T00:14:10;14.37;87.85
68257;DHT22;55069;51.568;4.656;2023-05-07T00:16:35;14.37;86.96
68257;DHT22;55069;51.568;4.656;2023-05-07T00:19:01;14.34;87.19
68257;DHT22;55069;51.568;4.656;2023-05-07T00:21:27;14.33;87.35
68257;DHT22;55069;51.568;4.656;2023-05-07T00:23:53;14.29;87.29
68257;DHT22;55069;51.568;4.656;2023-05-07T00:26:19;14.33;87.29
68257;DHT22;55069;51.568;4.656;2023-05-07T00:28:47;14.30;87.05
68257;DHT22;55069;51.568;4.656;2023-05-07T00:31:12;14.30;87.14
68257;DHT22;55069;51.568;4.656;2023-05-07T00:33:38;14.29;87.03
68257;DHT22;55069;51.568;4.656;2023-05-07T00:36:04;14.26;87.27
68257;DHT22;55069;51.568;4.656;2023-05-07T00:38:30;14.23;86.82
68257;DHT22;55069;51.568;4.656;2023-05-07T00:40:55;14.23;87.29
68257;DHT22;55069;51.568;4.656;2023-05-07T00:43:21;14.28;87.19
68257;DHT22;55069;51.568;4.656;2023-05-07T00:45:47;14.26;87.15
68257;DHT22;55069;51.568;4.656;2023-05-07T00:48:13;14.25;86.85
68257;DHT22;55069;51.568;4.656;2023-05-07T00:50:39;14.23;86.94
68257;DHT22;55069;51.568;4.656;2023-05-07T00:53:04;14.23;86.97
68257;DHT22;55069;51.568;4.656;2023-05-07T00:55:31;14.19;87.20
68257;DHT22;55069;51.568;4.656;2023-05-07T00:57:57;14.21;87.37
68257;DHT22;55069;51.568;4.656;2023-05-07T01:00:22;14.14;87.46
68257;DHT22;55069;51.568;4.656;2023-05-07T01:02:50;14.12;87.55
68257;DHT22;55069;51.568;4.656;2023-05-07T01:05:17;14.14;87.59
68257;DHT22;55069;51.568;4.656;2023-05-07T01:07:44;14.14;87.83
68257;DHT22;55069;51.568;4.656;2023-05-07T01:10:10;14.15;88.11
68257;DHT22;55069;51.568;4.656;2023-05-07T01:12:37;14.12;88.57
68257;DHT22;55069;51.568;4.656;2023-05-07T01:15:05;14.14;88.04
68257;DHT22;55069;51.568;4.656;2023-05-07T01:17:37;14.14;88.45
68257;DHT22;55069;51.568;4.656;2023-05-07T01:20:07;14.14;88.66
68257;DHT22;55069;51.568;4.656;2023-05-07T01:22:34;14.12;88.89
68257;DHT22;55069;51.568;4.656;2023-05-07T01:25:03;14.12;88.85
68257;DHT22;55069;51.568;4.656;2023-05-07T01:27:30;14.09;89.39
68257;DHT22;55069;51.568;4.656;2023-05-07T01:29:56;14.04;90.08
68257;DHT22;55069;51.568;4.656;2023-05-07T01:35:01;13.94;90.17
68257;DHT22;55069;51.568;4.656;2023-05-07T01:37:27;13.88;89.56
68257;DHT22;55069;51.568;4.656;2023-05-07T01:39:53;13.82;89.72
68257;DHT22;55069;51.568;4.656;2023-05-07T01:42:19;13.75;89.56
68257;DHT22;55069;51.568;4.656;2023-05-07T01:44:45;13.71;89.35
68257;DHT22;55069;51.568;4.656;2023-05-07T01:47:12;13.67;89.41
68257;DHT22;55069;51.568;4.656;2023-05-07T01:49:39;13.70;89.14
68257;DHT22;55069;51.568;4.656;2023-05-07T01:52:05;13.77;89.09
68257;DHT22;55069;51.568;4.656;2023-05-07T01:54:31;13.77;88.85
68257;DHT22;55069;51.568;4.656;2023-05-07T01:56:57;13.81;88.77
68257;DHT22;55069;51.568;4.656;2023-05-07T01:59:23;13.84;87.93
68257;DHT22;55069;51.568;4.656;2023-05-07T02:01:49;13.85;87.82
68257;DHT22;55069;51.568;4.656;2023-05-07T02:04:14;13.87;87.73
68257;DHT22;55069;51.568;4.656;2023-05-07T02:06:40;13.91;87.62
68257;DHT22;55069;51.568;4.656;2023-05-07T02:09:08;13.89;87.25
68257;DHT22;55069;51.568;4.656;2023-05-07T02:11:39;13.92;87.37
68257;DHT22;55069;51.568;4.656;2023-05-07T02:14:05;13.91;88.09
68257;DHT22;55069;51.568;4.656;2023-05-07T02:16:31;13.91;88.12
68257;DHT22;55069;51.568;4.656;2023-05-07T02:18:56;13.94;88.24
68257;DHT22;55069;51.568;4.656;2023-05-07T02:21:24;13.91;88.62
68257;DHT22;55069;51.568;4.656;2023-05-07T02:23:50;13.89;88.86
68257;DHT22;55069;51.568;4.656;2023-05-07T02:26:16;13.85;88.89
68257;DHT22;55069;51.568;4.656;2023-05-07T02:28:41;13.81;88.66
68257;DHT22;55069;51.568;4.656;2023-05-07T02:31:07;13.75;88.61
68257;DHT22;55069;51.568;4.656;2023-05-07T02:33:33;13.71;88.59
68257;DHT22;55069;51.568;4.656;2023-05-07T02:36:11;13.66;88.49
68257;DHT22;55069;51.568;4.656;2023-05-07T02:38:49;13.63;88.78
68257;DHT22;55069;51.568;4.656;2023-05-07T02:41:15;13.57;88.85
68257;DHT22;55069;51.568;4.656;2023-05-07T02:43:41;13.56;89.41
68257;DHT22;55069;51.568;4.656;2023-05-07T02:46:07;13.54;89.20
68257;DHT22;55069;51.568;4.656;2023-05-07T02:48:37;13.53;89.06
68257;DHT22;55069;51.568;4.656;2023-05-07T02:51:03;13.51;88.31
68257;DHT22;55069;51.568;4.656;2023-05-07T02:53:30;13.53;88.62
68257;DHT22;55069;51.568;4.656;2023-05-07T02:55:57;13.51;87.91
68257;DHT22;55069;51.568;4.656;2023-05-07T02:58:23;13.56;88.14
68257;DHT22;55069;51.568;4.656;2023-05-07T03:00:49;13.53;88.43
68257;DHT22;55069;51.568;4.656;2023-05-07T03:03:41;13.53;88.36
68257;DHT22;55069;51.568;4.656;2023-05-07T03:06:06;13.54;88.33
68257;DHT22;55069;51.568;4.656;2023-05-07T03:08:32;13.56;88.38
68257;DHT22;55069;51.568;4.656;2023-05-07T03:10:58;13.56;88.55
68257;DHT22;55069;51.568;4.656;2023-05-07T03:13:24;13.57;88.10
68257;DHT22;55069;51.568;4.656;2023-05-07T03:15:50;13.60;87.91
68257;DHT22;55069;51.568;4.656;2023-05-07T03:18:16;13.64;87.86
68257;DHT22;55069;51.568;4.656;2023-05-07T03:20:41;13.67;89.10
68257;DHT22;55069;51.568;4.656;2023-05-07T03:23:07;13.68;88.54
68257;DHT22;55069;51.568;4.656;2023-05-07T03:25:33;13.70;88.24
68257;DHT22;55069;51.568;4.656;2023-05-07T03:27:58;13.73;88.25
68257;DHT22;55069;51.568;4.656;2023-05-07T03:30:32;13.73;88.12
68257;DHT22;55069;51.568;4.656;2023-05-07T03:32:58;13.71;87.99
68257;DHT22;55069;51.568;4.656;2023-05-07T03:35:24;13.73;87.73
68257;DHT22;55069;51.568;4.656;2023-05-07T03:37:49;13.73;87.19
68257;DHT22;55069;51.568;4.656;2023-05-07T03:40:16;13.73;87.50
68257;DHT22;55069;51.568;4.656;2023-05-07T03:42:49;13.75;87.32
68257;DHT22;55069;51.568;4.656;2023-05-07T03:45:17;13.77;87.34
68257;DHT22;55069;51.568;4.656;2023-05-07T03:47:48;13.77;87.42
68257;DHT22;55069;51.568;4.656;2023-05-07T03:50:17;13.74;87.19
68257;DHT22;55069;51.568;4.656;2023-05-07T03:52:42;13.75;87.28
68257;DHT22;55069;51.568;4.656;2023-05-07T03:55:09;13.77;87.59
68257;DHT22;55069;51.568;4.656;2023-05-07T03:57:37;13.78;87.56
68257;DHT22;55069;51.568;4.656;2023-05-07T04:00:04;13.75;87.68
68257;DHT22;55069;51.568;4.656;2023-05-07T04:02:34;13.78;87.67
68257;DHT22;55069;51.568;4.656;2023-05-07T04:05:02;13.75;87.78
68257;DHT22;55069;51.568;4.656;2023-05-07T04:07:27;13.74;87.52
68257;DHT22;55069;51.568;4.656;2023-05-07T04:09:53;13.74;87.59
68257;DHT22;55069;51.568;4.656;2023-05-07T04:12:19;13.71;87.45
68257;DHT22;55069;51.568;4.656;2023-05-07T04:14:45;13.71;87.42
68257;DHT22;55069;51.568;4.656;2023-05-07T04:17:11;13.71;87.21
68257;DHT22;55069;51.568;4.656;2023-05-07T04:19:38;13.73;88.09
68257;DHT22;55069;51.568;4.656;2023-05-07T04:22:04;13.70;87.12
68257;DHT22;55069;51.568;4.656;2023-05-07T04:24:32;13.71;87.42
68257;DHT22;55069;51.568;4.656;2023-05-07T04:27:00;13.74;87.61
68257;DHT22;55069;51.568;4.656;2023-05-07T04:29:25;13.73;88.10
68257;DHT22;55069;51.568;4.656;2023-05-07T04:31:51;13.74;88.35
68257;DHT22;55069;51.568;4.656;2023-05-07T04:34:17;13.74;88.66
68257;DHT22;55069;51.568;4.656;2023-05-07T04:36:43;13.75;88.63
68257;DHT22;55069;51.568;4.656;2023-05-07T04:39:10;13.74;89.53
68257;DHT22;55069;51.568;4.656;2023-05-07T04:41:38;13.71;89.07
68257;DHT22;55069;51.568;4.656;2023-05-07T04:44:05;13.70;88.59
68257;DHT22;55069;51.568;4.656;2023-05-07T04:46:32;13.73;88.76
68257;DHT22;55069;51.568;4.656;2023-05-07T04:48:58;13.71;88.45
68257;DHT22;55069;51.568;4.656;2023-05-07T04:51:23;13.71;88.74
68257;DHT22;55069;51.568;4.656;2023-05-07T04:53:49;13.78;89.29
68257;DHT22;55069;51.568;4.656;2023-05-07T04:56:15;13.81;89.46
68257;DHT22;55069;51.568;4.656;2023-05-07T04:58:43;13.79;89.18
68257;DHT22;55069;51.568;4.656;2023-05-07T05:01:09;13.87;89.35
68257;DHT22;55069;51.568;4.656;2023-05-07T05:03:37;13.91;89.73
68257;DHT22;55069;51.568;4.656;2023-05-07T05:06:03;13.95;89.74
68257;DHT22;55069;51.568;4.656;2023-05-07T05:08:32;13.97;89.72
68257;DHT22;55069;51.568;4.656;2023-05-07T05:11:01;13.98;89.97
68257;DHT22;55069;51.568;4.656;2023-05-07T05:13:26;13.98;89.85
68257;DHT22;55069;51.568;4.656;2023-05-07T05:15:52;14.01;89.81
68257;DHT22;55069;51.568;4.656;2023-05-07T05:18:18;14.04;89.86
68257;DHT22;55069;51.568;4.656;2023-05-07T05:20:44;14.02;89.96
68257;DHT22;55069;51.568;4.656;2023-05-07T05:23:11;14.02;90.38
68257;DHT22;55069;51.568;4.656;2023-05-07T05:25:36;14.02;90.14
68257;DHT22;55069;51.568;4.656;2023-05-07T05:28:04;14.05;90.17
68257;DHT22;55069;51.568;4.656;2023-05-07T05:30:32;14.06;90.38
68257;DHT22;55069;51.568;4.656;2023-05-07T05:32:58;14.08;90.48
68257;DHT22;55069;51.568;4.656;2023-05-07T05:35:26;14.11;90.63
68257;DHT22;55069;51.568;4.656;2023-05-07T05:37:51;14.11;90.85
68257;DHT22;55069;51.568;4.656;2023-05-07T05:40:18;14.14;90.86
68257;DHT22;55069;51.568;4.656;2023-05-07T05:42:44;14.14;91.02
68257;DHT22;55069;51.568;4.656;2023-05-07T05:45:10;14.14;90.84
68257;DHT22;55069;51.568;4.656;2023-05-07T05:47:37;14.19;91.16
68257;DHT22;55069;51.568;4.656;2023-05-07T05:50:04;14.23;91.12
68257;DHT22;55069;51.568;4.656;2023-05-07T05:52:31;14.30;91.32
68257;DHT22;55069;51.568;4.656;2023-05-07T05:54:57;14.39;91.22
68257;DHT22;55069;51.568;4.656;2023-05-07T05:57:24;14.50;91.19
68257;DHT22;55069;51.568;4.656;2023-05-07T05:59:50;14.57;91.17
68257;DHT22;55069;51.568;4.656;2023-05-07T06:02:15;14.63;90.98
68257;DHT22;55069;51.568;4.656;2023-05-07T06:04:41;14.67;90.60
68257;DHT22;55069;51.568;4.656;2023-05-07T06:07:09;14.66;90.21
68257;DHT22;55069;51.568;4.656;2023-05-07T06:09:34;14.69;90.16
68257;DHT22;55069;51.568;4.656;2023-05-07T06:12:00;14.71;89.63
68257;DHT22;55069;51.568;4.656;2023-05-07T06:14:26;14.70;90.39
68257;DHT22;55069;51.568;4.656;2023-05-07T06:16:54;14.76;90.16
68257;DHT22;55069;51.568;4.656;2023-05-07T06:19:19;14.80;90.09
68257;DHT22;55069;51.568;4.656;2023-05-07T06:21:49;14.91;89.89
68257;DHT22;55069;51.568;4.656;2023-05-07T06:24:15;14.94;89.57
68257;DHT22;55069;51.568;4.656;2023-05-07T06:26:40;14.97;89.43
68257;DHT22;55069;51.568;4.656;2023-05-07T06:29:07;15.07;89.68
68257;DHT22;55069;51.568;4.656;2023-05-07T06:31:33;15.14;89.77
68257;DHT22;55069;51.568;4.656;2023-05-07T06:34:05;15.24;89.94
68257;DHT22;55069;51.568;4.656;2023-05-07T06:36:34;15.27;89.68
68257;DHT22;55069;51.568;4.656;2023-05-07T06:39:07;15.27;89.51
68257;DHT22;55069;51.568;4.656;2023-05-07T06:41:33;15.32;89.74
68257;DHT22;55069;51.568;4.656;2023-05-07T06:44:05;15.38;89.68
68257;DHT22;55069;51.568;4.656;2023-05-07T06:46:37;15.45;89.53
68257;DHT22;55069;51.568;4.656;2023-05-07T06:49:04;15.57;89.53
68257;DHT22;55069;51.568;4.656;2023-05-07T06:51:30;15.62;89.25
68257;DHT22;55069;51.568;4.656;2023-05-07T06:54:00;15.66;89.02
68257;DHT22;55069;51.568;4.656;2023-05-07T06:56:26;15.71;88.75
68257;DHT22;55069;51.568;4.656;2023-05-07T06:58:52;15.79;88.58
68257;DHT22;55069;51.568;4.656;2023-05-07T07:01:19;15.91;88.40
68257;DHT22;55069;51.568;4.656;2023-05-07T07:03:45;16.00;88.05
68257;DHT22;55069;51.568;4.656;2023-05-07T07:06:11;16.07;88.44
68257;DHT22;55069;51.568;4.656;2023-05-07T07:08:36;16.26;88.69
68257;DHT22;55069;51.568;4.656;2023-05-07T07:11:05;16.32;88.18
68257;DHT22;55069;51.568;4.656;2023-05-07T07:13:31;16.31;86.78
68257;DHT22;55069;51.568;4.656;2023-05-07T07:15:59;16.32;86.62
68257;DHT22;55069;51.568;4.656;2023-05-07T07:18:25;16.38;87.25
68257;DHT22;55069;51.568;4.656;2023-05-07T07:20:52;16.34;86.44
68257;DHT22;55069;51.568;4.656;2023-05-07T07:23:18;16.40;86.37
68257;DHT22;55069;51.568;4.656;2023-05-07T07:25:44;16.41;86.72
68257;DHT22;55069;51.568;4.656;2023-05-07T07:28:10;16.49;86.13
68257;DHT22;55069;51.568;4.656;2023-05-07T07:30:39;16.63;86.10
68257;DHT22;55069;51.568;4.656;2023-05-07T07:33:05;16.84;86.37
68257;DHT22;55069;51.568;4.656;2023-05-07T07:35:34;16.96;85.24
68257;DHT22;55069;51.568;4.656;2023-05-07T07:38:01;17.00;84.08
68257;DHT22;55069;51.568;4.656;2023-05-07T07:40:28;17.20;83.29
68257;DHT22;55069;51.568;4.656;2023-05-07T07:42:54;17.37;82.83
68257;DHT22;55069;51.568;4.656;2023-05-07T07:45:20;17.45;83.65
68257;DHT22;55069;51.568;4.656;2023-05-07T07:47:47;17.78;83.23
68257;DHT22;55069;51.568;4.656;2023-05-07T07:50:13;17.95;82.72
68257;DHT22;55069;51.568;4.656;2023-05-07T07:52:39;17.96;82.37
68257;DHT22;55069;51.568;4.656;2023-05-07T07:55:06;17.97;80.69
68257;DHT22;55069;51.568;4.656;2023-05-07T07:57:32;17.92;81.28
68257;DHT22;55069;51.568;4.656;2023-05-07T07:59:59;17.86;81.26
68257;DHT22;55069;51.568;4.656;2023-05-07T08:02:25;17.93;80.94
68257;DHT22;55069;51.568;4.656;2023-05-07T08:04:51;17.97;81.28
68257;DHT22;55069;51.568;4.656;2023-05-07T08:07:17;18.17;81.31
68257;DHT22;55069;51.568;4.656;2023-05-07T08:09:46;18.27;80.54
68257;DHT22;55069;51.568;4.656;2023-05-07T08:12:13;18.30;80.68
68257;DHT22;55069;51.568;4.656;2023-05-07T08:14:40;18.52;80.57
68257;DHT22;55069;51.568;4.656;2023-05-07T08:17:07;18.61;80.58
68257;DHT22;55069;51.568;4.656;2023-05-07T08:19:33;18.71;80.04
68257;DHT22;55069;51.568;4.656;2023-05-07T08:22:00;18.76;78.74
68257;DHT22;55069;51.568;4.656;2023-05-07T08:24:26;18.69;77.67
68257;DHT22;55069;51.568;4.656;2023-05-07T08:26:52;18.82;78.97
68257;DHT22;55069;51.568;4.656;2023-05-07T08:29:18;18.94;78.74
68257;DHT22;55069;51.568;4.656;2023-05-07T08:31:45;18.78;77.59
68257;DHT22;55069;51.568;4.656;2023-05-07T08:34:11;18.84;77.71
68257;DHT22;55069;51.568;4.656;2023-05-07T08:36:40;19.12;78.00
68257;DHT22;55069;51.568;4.656;2023-05-07T08:39:08;19.22;77.26
68257;DHT22;55069;51.568;4.656;2023-05-07T08:41:34;19.43;77.09
68257;DHT22;55069;51.568;4.656;2023-05-07T08:44:02;19.49;77.19
68257;DHT22;55069;51.568;4.656;2023-05-07T08:46:31;19.82;76.63
68257;DHT22;55069;51.568;4.656;2023-05-07T08:48:58;19.84;75.37
68257;DHT22;55069;51.568;4.656;2023-05-07T08:51:23;19.99;73.87
68257;DHT22;55069;51.568;4.656;2023-05-07T08:53:50;20.12;74.84
68257;DHT22;55069;51.568;4.656;2023-05-07T08:56:22;20.32;73.77
68257;DHT22;55069;51.568;4.656;2023-05-07T08:58:49;20.36;74.63
68257;DHT22;55069;51.568;4.656;2023-05-07T09:01:16;20.46;75.05
68257;DHT22;55069;51.568;4.656;2023-05-07T09:03:45;20.59;75.11
68257;DHT22;55069;51.568;4.656;2023-05-07T09:06:11;20.56;73.80
68257;DHT22;55069;51.568;4.656;2023-05-07T09:08:37;20.81;73.20
68257;DHT22;55069;51.568;4.656;2023-05-07T09:11:05;20.81;73.65
68257;DHT22;55069;51.568;4.656;2023-05-07T09:13:30;20.53;73.25
68257;DHT22;55069;51.568;4.656;2023-05-07T09:15:59;20.70;75.48
68257;DHT22;55069;51.568;4.656;2023-05-07T09:18:35;21.07;73.62
68257;DHT22;55069;51.568;4.656;2023-05-07T09:21:00;21.24;72.72
68257;DHT22;55069;51.568;4.656;2023-05-07T09:23:26;21.09;71.29
68257;DHT22;55069;51.568;4.656;2023-05-07T09:25:59;21.01;73.89
68257;DHT22;55069;51.568;4.656;2023-05-07T09:28:27;21.18;73.03
68257;DHT22;55069;51.568;4.656;2023-05-07T09:30:52;21.27;73.14
68257;DHT22;55069;51.568;4.656;2023-05-07T09:33:19;21.25;71.67
68257;DHT22;55069;51.568;4.656;2023-05-07T09:35:51;20.90;71.72
68257;DHT22;55069;51.568;4.656;2023-05-07T09:38:18;21.09;70.55
68257;DHT22;55069;51.568;4.656;2023-05-07T09:40:45;21.07;69.63
68257;DHT22;55069;51.568;4.656;2023-05-07T09:43:13;21.17;70.78
68257;DHT22;55069;51.568;4.656;2023-05-07T09:45:49;20.91;71.26
68257;DHT22;55069;51.568;4.656;2023-05-07T09:48:18;21.00;70.90
68257;DHT22;55069;51.568;4.656;2023-05-07T09:50:49;20.94;69.91
68257;DHT22;55069;51.568;4.656;2023-05-07T09:53:17;20.90;70.58
68257;DHT22;55069;51.568;4.656;2023-05-07T09:55:43;21.09;70.91
68257;DHT22;55069;51.568;4.656;2023-05-07T09:58:12;21.05;71.11
68257;DHT22;55069;51.568;4.656;2023-05-07T10:00:39;21.04;71.40
68257;DHT22;55069;51.568;4.656;2023-05-07T10:03:10;20.98;71.46
68257;DHT22;55069;51.568;4.656;2023-05-07T10:05:49;20.91;73.50
68257;DHT22;55069;51.568;4.656;2023-05-07T10:08:16;21.02;69.92
68257;DHT22;55069;51.568;4.656;2023-05-07T10:10:44;21.12;71.47
68257;DHT22;55069;51.568;4.656;2023-05-07T10:13:14;20.97;69.49
68257;DHT22;55069;51.568;4.656;2023-05-07T10:15:45;21.22;69.06
68257;DHT22;55069;51.568;4.656;2023-05-07T10:18:11;21.27;70.00
68257;DHT22;55069;51.568;4.656;2023-05-07T10:20:38;21.39;69.84
68257;DHT22;55069;51.568;4.656;2023-05-07T10:23:08;21.50;69.25
68257;DHT22;55069;51.568;4.656;2023-05-07T10:25:41;21.45;69.07
68257;DHT22;55069;51.568;4.656;2023-05-07T10:28:16;21.43;68.35
68257;DHT22;55069;51.568;4.656;2023-05-07T10:33:11;21.02;68.79
68257;DHT22;55069;51.568;4.656;2023-05-07T10:35:43;21.28;68.04
68257;DHT22;55069;51.568;4.656;2023-05-07T10:38:11;21.52;69.27
68257;DHT22;55069;51.568;4.656;2023-05-07T10:40:39;21.72;69.72
68257;DHT22;55069;51.568;4.656;2023-05-07T10:43:06;21.31;67.90
68257;DHT22;55069;51.568;4.656;2023-05-07T10:46:09;21.43;69.34
68257;DHT22;55069;51.568;4.656;2023-05-07T10:52:24;21.43;70.19
68257;DHT22;55069;51.568;4.656;2023-05-07T10:58:25;21.86;70.81
68257;DHT22;55069;51.568;4.656;2023-05-07T11:00:59;21.63;70.51
68257;DHT22;55069;51.568;4.656;2023-05-07T11:03:31;21.52;71.17
68257;DHT22;55069;51.568;4.656;2023-05-07T11:06:11;21.45;71.98
68257;DHT22;55069;51.568;4.656;2023-05-07T11:09:03;21.35;71.75
68257;DHT22;55069;51.568;4.656;2023-05-07T11:11:55;21.25;71.34
68257;DHT22;55069;51.568;4.656;2023-05-07T11:14:46;21.35;70.86
68257;DHT22;55069;51.568;4.656;2023-05-07T11:17:30;21.27;69.02
68257;DHT22;55069;51.568;4.656;2023-05-07T11:20:04;21.14;71.38
68257;DHT22;55069;51.568;4.656;2023-05-07T11:22:47;21.25;69.26
68257;DHT22;55069;51.568;4.656;2023-05-07T11:25:19;21.38;69.55
68257;DHT22;55069;51.568;4.656;2023-05-07T11:27:49;21.45;70.65
68257;DHT22;55069;51.568;4.656;2023-05-07T11:30:18;21.67;69.18
68257;DHT22;55069;51.568;4.656;2023-05-07T11:32:47;21.84;68.90
68257;DHT22;55069;51.568;4.656;2023-05-07T11:35:15;21.89;68.25
68257;DHT22;55069;51.568;4.656;2023-05-07T11:37:44;22.03;68.12
68257;DHT22;55069;51.568;4.656;2023-05-07T11:40:12;22.08;68.43
68257;DHT22;55069;51.568;4.656;2023-05-07T11:42:39;22.15;68.70
68257;DHT22;55069;51.568;4.656;2023-05-07T11:45:07;22.13;67.86
68257;DHT22;55069;51.568;4.656;2023-05-07T11:47:33;22.11;68.93
68257;DHT22;55069;51.568;4.656;2023-05-07T11:50:06;22.17;68.87
68257;DHT22;55069;51.568;4.656;2023-05-07T11:52:33;22.28;68.03
68257;DHT22;55069;51.568;4.656;2023-05-07T11:55:01;22.31;68.35
68257;DHT22;55069;51.568;4.656;2023-05-07T11:57:27;22.47;67.76
68257;DHT22;55069;51.568;4.656;2023-05-07T11:59:58;22.47;66.86
68257;DHT22;55069;51.568;4.656;2023-05-07T12:02:24;22.13;68.04
68257;DHT22;55069;51.568;4.656;2023-05-07T12:04:51;22.27;68.10
68257;DHT22;55069;51.568;4.656;2023-05-07T12:07:16;22.49;67.34
68257;DHT22;55069;51.568;4.656;2023-05-07T12:09:44;22.52;67.11
68257;DHT22;55069;51.568;4.656;2023-05-07T12:12:11;22.56;67.52
68257;DHT22;55069;51.568;4.656;2023-05-07T12:14:41;22.70;66.99
68257;DHT22;55069;51.568;4.656;2023-05-07T12:17:08;22.99;66.52
68257;DHT22;55069;51.568;4.656;2023-05-07T12:19:35;22.73;67.00
68257;DHT22;55069;51.568;4.656;2023-05-07T12:22:02;22.80;65.99
68257;DHT22;55069;51.568;4.656;2023-05-07T12:24:28;22.11;65.99
68257;DHT22;55069;51.568;4.656;2023-05-07T12:26:54;22.68;65.90
68257;DHT22;55069;51.568;4.656;2023-05-07T12:29:23;22.61;64.55
68257;DHT22;55069;51.568;4.656;2023-05-07T12:31:50;22.96;65.29
68257;DHT22;55069;51.568;4.656;2023-05-07T12:34:15;22.59;64.49
68257;DHT22;55069;51.568;4.656;2023-05-07T12:36:41;21.96;64.05
68257;DHT22;55069;51.568;4.656;2023-05-07T12:39:08;22.32;62.20
68257;DHT22;55069;51.568;4.656;2023-05-07T12:41:57;22.70;65.00
68257;DHT22;55069;51.568;4.656;2023-05-07T12:44:30;22.95;64.86
68257;DHT22;55069;51.568;4.656;2023-05-07T12:46:56;21.70;65.35
68257;DHT22;55069;51.568;4.656;2023-05-07T12:49:25;22.35;64.77
68257;DHT22;55069;51.568;4.656;2023-05-07T12:51:51;22.13;62.84
68257;DHT22;55069;51.568;4.656;2023-05-07T12:54:28;22.48;64.57
68257;DHT22;55069;51.568;4.656;2023-05-07T12:57:04;22.73;63.91
68257;DHT22;55069;51.568;4.656;2023-05-07T12:59:40;22.77;61.88
68257;DHT22;55069;51.568;4.656;2023-05-07T13:02:06;22.56;61.79
68257;DHT22;55069;51.568;4.656;2023-05-07T13:04:34;22.34;61.84
68257;DHT22;55069;51.568;4.656;2023-05-07T13:07:01;20.88;65.89
68257;DHT22;55069;51.568;4.656;2023-05-07T13:09:27;21.32;66.12
68257;DHT22;55069;51.568;4.656;2023-05-07T13:11:54;21.70;65.11
68257;DHT22;55069;51.568;4.656;2023-05-07T13:14:20;21.98;64.79
68257;DHT22;55069;51.568;4.656;2023-05-07T13:16:49;22.21;63.78
68257;DHT22;55069;51.568;4.656;2023-05-07T13:19:15;22.49;62.55
68257;DHT22;55069;51.568;4.656;2023-05-07T13:21:40;22.27;62.21
68257;DHT22;55069;51.568;4.656;2023-05-07T13:24:06;22.59;62.20
68257;DHT22;55069;51.568;4.656;2023-05-07T13:26:32;22.66;61.65
68257;DHT22;55069;51.568;4.656;2023-05-07T13:28:58;22.72;62.79
68257;DHT22;55069;51.568;4.656;2023-05-07T13:31:24;22.85;62.06
68257;DHT22;55069;51.568;4.656;2023-05-07T13:33:50;22.97;61.65
68257;DHT22;55069;51.568;4.656;2023-05-07T13:36:16;22.92;63.47
68257;DHT22;55069;51.568;4.656;2023-05-07T13:38:41;22.04;62.50
68257;DHT22;55069;51.568;4.656;2023-05-07T13:41:07;22.24;62.04
68257;DHT22;55069;51.568;4.656;2023-05-07T13:43:33;22.28;62.82
68257;DHT22;55069;51.568;4.656;2023-05-07T13:45:59;22.14;62.49
68257;DHT22;55069;51.568;4.656;2023-05-07T13:48:25;22.15;63.57
68257;DHT22;55069;51.568;4.656;2023-05-07T13:50:51;22.03;62.04
68257;DHT22;55069;51.568;4.656;2023-05-07T13:53:17;22.01;64.41
68257;DHT22;55069;51.568;4.656;2023-05-07T13:55:44;21.89;64.01
68257;DHT22;55069;51.568;4.656;2023-05-07T13:58:10;21.89;67.10
68257;DHT22;55069;51.568;4.656;2023-05-07T14:00:36;21.82;64.68
68257;DHT22;55069;51.568;4.656;2023-05-07T14:03:03;21.48;64.47
68257;DHT22;55069;51.568;4.656;2023-05-07T14:05:30;21.34;66.09
68257;DHT22;55069;51.568;4.656;2023-05-07T14:07:57;21.52;66.25
68257;DHT22;55069;51.568;4.656;2023-05-07T14:10:23;21.73;65.97
68257;DHT22;55069;51.568;4.656;2023-05-07T14:12:49;21.97;65.04
68257;DHT22;55069;51.568;4.656;2023-05-07T14:15:15;22.04;65.20
68257;DHT22;55069;51.568;4.656;2023-05-07T14:17:44;21.87;63.53
68257;DHT22;55069;51.568;4.656;2023-05-07T14:20:11;22.08;65.02
68257;DHT22;55069;51.568;4.656;2023-05-07T14:22:37;22.14;64.49
68257;DHT22;55069;51.568;4.656;2023-05-07T14:25:03;22.17;64.54
68257;DHT22;55069;51.568;4.656;2023-05-07T14:27:29;22.04;64.11
68257;DHT22;55069;51.568;4.656;2023-05-07T14:29:54;21.14;65.19
68257;DHT22;55069;51.568;4.656;2023-05-07T14:32:21;21.43;65.91
68257;DHT22;55069;51.568;4.656;2023-05-07T14:34:47;21.60;68.18
68257;DHT22;55069;51.568;4.656;2023-05-07T14:37:13;21.75;67.52
68257;DHT22;55069;51.568;4.656;2023-05-07T14:39:39;22.03;66.85
68257;DHT22;55069;51.568;4.656;2023-05-07T14:42:05;22.22;65.25
68257;DHT22;55069;51.568;4.656;2023-05-07T14:44:36;22.38;64.99
68257;DHT22;55069;51.568;4.656;2023-05-07T14:47:02;22.28;64.66
68257;DHT22;55069;51.568;4.656;2023-05-07T14:49:28;22.37;63.56
68257;DHT22;55069;51.568;4.656;2023-05-07T14:51:53;22.35;64.39
68257;DHT22;55069;51.568;4.656;2023-05-07T14:54:19;21.59;63.47
68257;DHT22;55069;51.568;4.656;2023-05-07T14:56:45;21.41;64.46
68257;DHT22;55069;51.568;4.656;2023-05-07T14:59:11;21.98;65.96
68257;DHT22;55069;51.568;4.656;2023-05-07T15:01:37;22.44;63.54
68257;DHT22;55069;51.568;4.656;2023-05-07T15:04:03;22.61;62.88
68257;DHT22;55069;51.568;4.656;2023-05-07T15:06:29;22.76;62.86
68257;DHT22;55069;51.568;4.656;2023-05-07T15:08:55;22.80;64.23
68257;DHT22;55069;51.568;4.656;2023-05-07T15:11:20;22.77;62.09
68257;DHT22;55069;51.568;4.656;2023-05-07T15:13:46;22.66;63.33
68257;DHT22;55069;51.568;4.656;2023-05-07T15:16:12;22.00;62.18
68257;DHT22;55069;51.568;4.656;2023-05-07T15:18:38;22.03;63.60
68257;DHT22;55069;51.568;4.656;2023-05-07T15:21:04;21.59;63.76
68257;DHT22;55069;51.568;4.656;2023-05-07T15:23:31;21.83;65.50
68257;DHT22;55069;51.568;4.656;2023-05-07T15:25:57;21.87;65.76
68257;DHT22;55069;51.568;4.656;2023-05-07T15:28:23;21.98;65.69
68257;DHT22;55069;51.568;4.656;2023-05-07T15:30:50;22.03;64.66
68257;DHT22;55069;51.568;4.656;2023-05-07T15:33:15;22.00;64.57
68257;DHT22;55069;51.568;4.656;2023-05-07T15:35:41;22.10;63.43
68257;DHT22;55069;51.568;4.656;2023-05-07T15:38:07;22.22;64.48
68257;DHT22;55069;51.568;4.656;2023-05-07T15:40:34;22.44;62.51
68257;DHT22;55069;51.568;4.656;2023-05-07T15:43:00;21.89;62.72
68257;DHT22;55069;51.568;4.656;2023-05-07T15:45:26;22.24;62.13